sensor_id;sensor_type;location;lat;lon;timestamp;pressure;altitude;pressure_sealevel;temperature;humidity
72294;BME280;60632;49.236;8.398;2023-04-12T00:01:49;100028.69;;;24.62;36.08
72294;BME280;60632;49.236;8.398;2023-04-12T00:04:49;100029.81;;;24.61;36.00
72294;BME280;60632;49.236;8.398;2023-04-12T00:07:54;100024.75;;;24.63;36.22
72294;BME280;60632;49.236;8.398;2023-04-12T00:10:54;100012.06;;;24.62;36.13
72294;BME280;60632;49.236;8.398;2023-04-12T00:13:55;100017.91;;;24.60;36.11
72294;BME280;60632;49.236;8.398;2023-04-12T00:16:55;100015.16;;;24.60;35.97
72294;BME280;60632;49.236;8.398;2023-04-12T00:19:55;100008.78;;;24.60;36.23
72294;BME280;60632;49.236;8.398;2023-04-12T00:22:56;100007.19;;;24.59;36.00
72294;BME280;60632;49.236;8.398;2023-04-12T00:25:56;100007.19;;;24.59;36.15
72294;BME280;60632;49.236;8.398;2023-04-12T00:28:57;100007.19;;;24.59;35.92
72294;BME280;60632;49.236;8.398;2023-04-12T00:31:57;100001.97;;;24.57;36.16
72294;BME280;60632;49.236;8.398;2023-04-12T00:34:58;99997.22;;;24.58;36.14
72294;BME280;60632;49.236;8.398;2023-04-12T00:37:59;100005.53;;;24.58;36.10
72294;BME280;60632;49.236;8.398;2023-04-12T00:41:02;99988.91;;;24.58;35.96
72294;BME280;60632;49.236;8.398;2023-04-12T00:44:02;99988.09;;;24.57;36.03
72294;BME280;60632;49.236;8.398;2023-04-12T00:47:03;99981.75;;;24.57;36.10
72294;BME280;60632;49.236;8.398;2023-04-12T00:50:04;99987.31;;;24.57;36.01
72294;BME280;60632;49.236;8.398;2023-04-12T00:53:05;99978.19;;;24.56;35.90
72294;BME280;60632;49.236;8.398;2023-04-12T00:56:06;99976.22;;;24.57;36.09
72294;BME280;60632;49.236;8.398;2023-04-12T00:59:06;99967.09;;;24.56;36.06
72294;BME280;60632;49.236;8.398;2023-04-12T01:02:07;99958.00;;;24.56;36.00
72294;BME280;60632;49.236;8.398;2023-04-12T01:05:08;99962.72;;;24.55;36.13
72294;BME280;60632;49.236;8.398;2023-04-12T01:08:18;99950.84;;;24.55;35.95
72294;BME280;60632;49.236;8.398;2023-04-12T01:11:32;99938.91;;;24.54;35.89
72294;BME280;60632;49.236;8.398;2023-04-12T01:14:47;99938.91;;;24.54;35.99
72294;BME280;60632;49.236;8.398;2023-04-12T01:21:00;99928.66;;;24.55;35.91
72294;BME280;60632;49.236;8.398;2023-04-12T01:24:08;99924.25;;;24.54;36.00
72294;BME280;60632;49.236;8.398;2023-04-12T01:27:21;99927.03;;;24.54;35.92
72294;BME280;60632;49.236;8.398;2023-04-12T01:30:28;99915.94;;;24.54;36.11
72294;BME280;60632;49.236;8.398;2023-04-12T01:33:30;99910.41;;;24.54;35.94
72294;BME280;60632;49.236;8.398;2023-04-12T01:36:32;99904.88;;;24.54;36.00
72294;BME280;60632;49.236;8.398;2023-04-12T01:39:33;99894.94;;;24.53;35.88
72294;BME280;60632;49.236;8.398;2023-04-12T01:42:34;99898.53;;;24.53;35.93
72294;BME280;60632;49.236;8.398;2023-04-12T01:45:35;99886.63;;;24.53;35.92
72294;BME280;60632;49.236;8.398;2023-04-12T01:48:35;99883.06;;;24.52;36.04
72294;BME280;60632;49.236;8.398;2023-04-12T01:54:36;99870.00;;;24.53;35.79
72294;BME280;60632;49.236;8.398;2023-04-12T01:57:37;99862.88;;;24.52;35.94
72294;BME280;60632;49.236;8.398;2023-04-12T02:00:39;99857.31;;;24.52;36.02
72294;BME280;60632;49.236;8.398;2023-04-12T02:03:39;99847.38;;;24.51;36.06
72294;BME280;60632;49.236;8.398;2023-04-12T02:06:41;99839.06;;;24.51;36.12
72294;BME280;60632;49.236;8.398;2023-04-12T02:09:42;99839.06;;;24.51;35.88
72294;BME280;60632;49.236;8.398;2023-04-12T02:12:43;99838.25;;;24.50;36.02
72294;BME280;60632;49.236;8.398;2023-04-12T02:15:43;99827.19;;;24.50;35.88
72294;BME280;60632;49.236;8.398;2023-04-12T02:18:48;99820.03;;;24.49;36.01
72294;BME280;60632;49.236;8.398;2023-04-12T02:21:49;99812.53;;;24.50;35.95
72294;BME280;60632;49.236;8.398;2023-04-12T02:24:49;99802.59;;;24.49;36.02
72294;BME280;60632;49.236;8.398;2023-04-12T02:27:50;99804.53;;;24.48;35.91
72294;BME280;60632;49.236;8.398;2023-04-12T02:30:50;99808.13;;;24.49;36.02
72294;BME280;60632;49.236;8.398;2023-04-12T02:33:52;99796.56;;;24.47;36.04
72294;BME280;60632;49.236;8.398;2023-04-12T02:36:53;99789.88;;;24.48;35.95
72294;BME280;60632;49.236;8.398;2023-04-12T02:39:53;99784.34;;;24.48;36.02
72294;BME280;60632;49.236;8.398;2023-04-12T02:42:55;99775.22;;;24.47;35.95
72294;BME280;60632;49.236;8.398;2023-04-12T02:45:56;99771.66;;;24.47;35.95
72294;BME280;60632;49.236;8.398;2023-04-12T02:48:56;99761.38;;;24.47;35.91
72294;BME280;60632;49.236;8.398;2023-04-12T02:51:56;99754.22;;;24.46;35.91
72294;BME280;60632;49.236;8.398;2023-04-12T02:54:57;99748.69;;;24.46;35.93
72294;BME280;60632;49.236;8.398;2023-04-12T02:57:57;99731.25;;;24.46;35.93
72294;BME280;60632;49.236;8.398;2023-04-12T03:00:58;99738.41;;;24.47;35.98
72294;BME280;60632;49.236;8.398;2023-04-12T03:03:59;99722.94;;;24.46;36.05
72294;BME280;60632;49.236;8.398;2023-04-12T03:07:01;99715.78;;;24.44;35.91
72294;BME280;60632;49.236;8.398;2023-04-12T03:10:01;99713.00;;;24.44;35.79
72294;BME280;60632;49.236;8.398;2023-04-12T03:13:02;99696.38;;;24.44;36.09
72294;BME280;60632;49.236;8.398;2023-04-12T03:16:18;99698.03;;;24.46;36.04
72294;BME280;60632;49.236;8.398;2023-04-12T03:19:18;99686.47;;;24.43;36.07
72294;BME280;60632;49.236;8.398;2023-04-12T03:22:19;99678.16;;;24.43;36.06
72294;BME280;60632;49.236;8.398;2023-04-12T03:25:19;99682.09;;;24.42;36.12
72294;BME280;60632;49.236;8.398;2023-04-12T03:28:19;99678.97;;;24.44;35.99
72294;BME280;60632;49.236;8.398;2023-04-12T03:31:20;99683.69;;;24.43;36.04
72294;BME280;60632;49.236;8.398;2023-04-12T03:34:21;99667.09;;;24.43;35.93
72294;BME280;60632;49.236;8.398;2023-04-12T03:37:21;99661.91;;;24.42;35.90
72294;BME280;60632;49.236;8.398;2023-04-12T03:40:21;99650.00;;;24.41;35.96
72294;BME280;60632;49.236;8.398;2023-04-12T03:43:22;99643.31;;;24.42;36.02
72294;BME280;60632;49.236;8.398;2023-04-12T03:46:22;99638.91;;;24.41;35.88
72294;BME280;60632;49.236;8.398;2023-04-12T03:49:22;99629.78;;;24.41;35.91
72294;BME280;60632;49.236;8.398;2023-04-12T03:52:23;99619.53;;;24.41;35.98
72294;BME280;60632;49.236;8.398;2023-04-12T03:55:23;99613.97;;;24.41;35.93
72294;BME280;60632;49.236;8.398;2023-04-12T03:58:24;99596.56;;;24.41;35.78
72294;BME280;60632;49.236;8.398;2023-04-12T04:01:24;99597.38;;;24.41;35.72
72294;BME280;60632;49.236;8.398;2023-04-12T04:04:25;99598.50;;;24.40;35.88
72294;BME280;60632;49.236;8.398;2023-04-12T04:07:25;99590.19;;;24.40;35.87
72294;BME280;60632;49.236;8.398;2023-04-12T04:10:27;99585.50;;;24.41;35.85
72294;BME280;60632;49.236;8.398;2023-04-12T04:13:27;99586.63;;;24.40;35.86
72294;BME280;60632;49.236;8.398;2023-04-12T04:16:27;99583.03;;;24.39;35.91
72294;BME280;60632;49.236;8.398;2023-04-12T04:19:29;99583.03;;;24.39;35.89
72294;BME280;60632;49.236;8.398;2023-04-12T04:22:30;99578.31;;;24.40;35.87
72294;BME280;60632;49.236;8.398;2023-04-12T04:25:31;99579.13;;;24.40;35.86
72294;BME280;60632;49.236;8.398;2023-04-12T04:28:32;99560.88;;;24.39;35.88
72294;BME280;60632;49.236;8.398;2023-04-12T04:31:33;99548.19;;;24.38;35.93
72294;BME280;60632;49.236;8.398;2023-04-12T04:34:35;99552.91;;;24.38;35.83
72294;BME280;60632;49.236;8.398;2023-04-12T04:37:36;99545.41;;;24.38;35.92
72294;BME280;60632;49.236;8.398;2023-04-12T04:40:36;99545.78;;;24.37;35.85
72294;BME280;60632;49.236;8.398;2023-04-12T04:43:37;99546.94;;;24.36;35.87
72294;BME280;60632;49.236;8.398;2023-04-12T04:46:39;99538.50;;;24.32;35.89
72294;BME280;60632;49.236;8.398;2023-04-12T04:49:39;99541.59;;;24.31;36.07
72294;BME280;60632;49.236;8.398;2023-04-12T04:52:40;99531.69;;;24.30;35.83
72294;BME280;60632;49.236;8.398;2023-04-12T04:55:40;99532.81;;;24.29;35.74
72294;BME280;60632;49.236;8.398;2023-04-12T04:58:40;99527.66;;;24.27;36.11
72294;BME280;60632;49.236;8.398;2023-04-12T05:01:41;99532.81;;;24.29;35.94
72294;BME280;60632;49.236;8.398;2023-04-12T05:04:42;99530.41;;;24.27;35.94
72294;BME280;60632;49.236;8.398;2023-04-12T05:07:42;99526.50;;;24.28;35.90
72294;BME280;60632;49.236;8.398;2023-04-12T05:10:42;99513.81;;;24.27;35.96
72294;BME280;60632;49.236;8.398;2023-04-12T05:13:43;99509.06;;;24.28;35.98
72294;BME280;60632;49.236;8.398;2023-04-12T05:16:43;99497.19;;;24.27;35.96
72294;BME280;60632;49.236;8.398;2023-04-12T05:19:44;99511.03;;;24.27;35.96
72294;BME280;60632;49.236;8.398;2023-04-12T05:22:44;99507.47;;;24.27;35.94
72294;BME280;60632;49.236;8.398;2023-04-12T05:25:47;99497.53;;;24.26;35.95
72294;BME280;60632;49.236;8.398;2023-04-12T05:28:49;99488.41;;;24.25;36.03
72294;BME280;60632;49.236;8.398;2023-04-12T05:31:49;99483.69;;;24.26;35.99
72294;BME280;60632;49.236;8.398;2023-04-12T05:34:49;99464.66;;;24.24;35.84
72294;BME280;60632;49.236;8.398;2023-04-12T05:37:51;99455.19;;;24.25;35.99
72294;BME280;60632;49.236;8.398;2023-04-12T05:40:51;99448.03;;;24.24;35.81
72294;BME280;60632;49.236;8.398;2023-04-12T05:43:51;99448.03;;;24.24;36.01
72294;BME280;60632;49.236;8.398;2023-04-12T05:46:52;99440.53;;;24.25;35.93
72294;BME280;60632;49.236;8.398;2023-04-12T05:49:52;99409.28;;;24.24;35.91
72294;BME280;60632;49.236;8.398;2023-04-12T05:52:53;99416.78;;;24.24;35.82
72294;BME280;60632;49.236;8.398;2023-04-12T05:55:54;99421.97;;;24.25;35.89
72294;BME280;60632;49.236;8.398;2023-04-12T05:58:54;99414.03;;;24.24;35.75
72294;BME280;60632;49.236;8.398;2023-04-12T06:01:55;99411.25;;;24.24;35.99
72294;BME280;60632;49.236;8.398;2023-04-12T06:04:55;99403.75;;;24.24;35.89
72294;BME280;60632;49.236;8.398;2023-04-12T06:07:57;99399.38;;;24.23;35.71
72294;BME280;60632;49.236;8.398;2023-04-12T06:10:58;99393.84;;;24.23;35.94
72294;BME280;60632;49.236;8.398;2023-04-12T06:13:59;99385.53;;;24.23;35.96
72294;BME280;60632;49.236;8.398;2023-04-12T06:16:59;99388.31;;;24.23;35.88
72294;BME280;60632;49.236;8.398;2023-04-12T06:20:00;99388.31;;;24.23;35.83
72294;BME280;60632;49.236;8.398;2023-04-12T06:23:00;99378.38;;;24.22;35.94
72294;BME280;60632;49.236;8.398;2023-04-12T06:26:01;99361.75;;;24.22;35.90
72294;BME280;60632;49.236;8.398;2023-04-12T06:29:01;99360.63;;;24.23;35.96
72294;BME280;60632;49.236;8.398;2023-04-12T06:32:01;99362.59;;;24.23;35.81
72294;BME280;60632;49.236;8.398;2023-04-12T06:35:02;99346.78;;;24.23;35.75
72294;BME280;60632;49.236;8.398;2023-04-12T06:38:02;99347.56;;;24.24;35.95
72294;BME280;60632;49.236;8.398;2023-04-12T06:41:03;99352.31;;;24.23;35.86
72294;BME280;60632;49.236;8.398;2023-04-12T06:44:03;99341.25;;;24.23;35.83
72294;BME280;60632;49.236;8.398;2023-04-12T06:47:03;99339.59;;;24.22;36.00
72294;BME280;60632;49.236;8.398;2023-04-12T06:50:04;99339.59;;;24.22;35.86
72294;BME280;60632;49.236;8.398;2023-04-12T06:53:06;99329.34;;;24.23;35.83
72294;BME280;60632;49.236;8.398;2023-04-12T06:56:06;99323.81;;;24.23;35.86
72294;BME280;60632;49.236;8.398;2023-04-12T06:59:06;99321.84;;;24.23;35.81
72294;BME280;60632;49.236;8.398;2023-04-12T07:02:08;99319.09;;;24.23;35.97
72294;BME280;60632;49.236;8.398;2023-04-12T07:05:08;99311.91;;;24.22;35.79
72294;BME280;60632;49.236;8.398;2023-04-12T07:08:09;99302.47;;;24.23;35.93
72294;BME280;60632;49.236;8.398;2023-04-12T07:11:09;99299.72;;;24.23;35.88
72294;BME280;60632;49.236;8.398;2023-04-12T07:14:09;99294.16;;;24.23;35.86
72294;BME280;60632;49.236;8.398;2023-04-12T07:17:10;99281.47;;;24.22;35.87
72294;BME280;60632;49.236;8.398;2023-04-12T07:20:10;99267.63;;;24.22;35.79
72294;BME280;60632;49.236;8.398;2023-04-12T07:23:11;99274.78;;;24.23;35.94
72294;BME280;60632;49.236;8.398;2023-04-12T07:26:11;99267.63;;;24.22;35.83
72294;BME280;60632;49.236;8.398;2023-04-12T07:29:11;99263.72;;;24.23;35.95
72294;BME280;60632;49.236;8.398;2023-04-12T07:32:12;99245.47;;;24.22;35.87
72294;BME280;60632;49.236;8.398;2023-04-12T07:35:12;99243.88;;;24.21;35.76
72294;BME280;60632;49.236;8.398;2023-04-12T07:38:12;99236.38;;;24.21;36.00
72294;BME280;60632;49.236;8.398;2023-04-12T07:41:13;99211.81;;;24.20;35.83
72294;BME280;60632;49.236;8.398;2023-04-12T07:44:13;99209.06;;;24.20;35.76
72294;BME280;60632;49.236;8.398;2023-04-12T07:47:13;99211.81;;;24.20;35.79
72294;BME280;60632;49.236;8.398;2023-04-12T07:50:14;99220.13;;;24.20;35.84
72294;BME280;60632;49.236;8.398;2023-04-12T07:53:18;99205.13;;;24.21;35.94
72294;BME280;60632;49.236;8.398;2023-04-12T07:56:19;99206.28;;;24.20;35.94
72294;BME280;60632;49.236;8.398;2023-04-12T07:59:19;99211.81;;;24.20;35.83
72294;BME280;60632;49.236;8.398;2023-04-12T08:02:20;99203.50;;;24.20;35.98
72294;BME280;60632;49.236;8.398;2023-04-12T08:05:26;99195.22;;;24.20;35.83
72294;BME280;60632;49.236;8.398;2023-04-12T08:08:26;99190.09;;;24.22;35.90
72294;BME280;60632;49.236;8.398;2023-04-12T08:11:27;99198.78;;;24.20;35.89
72294;BME280;60632;49.236;8.398;2023-04-12T08:14:27;99196.81;;;24.21;35.91
72294;BME280;60632;49.236;8.398;2023-04-12T08:17:27;99201.53;;;24.20;35.88
72294;BME280;60632;49.236;8.398;2023-04-12T08:20:28;99194.03;;;24.21;35.84
72294;BME280;60632;49.236;8.398;2023-04-12T08:23:29;99191.28;;;24.21;35.90
72294;BME280;60632;49.236;8.398;2023-04-12T08:26:29;99177.44;;;24.21;36.01
72294;BME280;60632;49.236;8.398;2023-04-12T08:29:29;99169.94;;;24.21;35.86
72294;BME280;60632;49.236;8.398;2023-04-12T08:32:30;99170.28;;;24.20;35.94
72294;BME280;60632;49.236;8.398;2023-04-12T08:35:30;99179.75;;;24.19;35.96
72294;BME280;60632;49.236;8.398;2023-04-12T08:38:31;99169.50;;;24.19;35.94
72294;BME280;60632;49.236;8.398;2023-04-12T08:41:32;99175.03;;;24.19;35.92
72294;BME280;60632;49.236;8.398;2023-04-12T08:44:34;99188.88;;;24.19;35.89
72294;BME280;60632;49.236;8.398;2023-04-12T08:47:36;99175.84;;;24.20;35.88
72294;BME280;60632;49.236;8.398;2023-04-12T08:50:36;99165.56;;;24.20;36.03
72294;BME280;60632;49.236;8.398;2023-04-12T08:53:37;99168.66;;;24.19;35.92
72294;BME280;60632;49.236;8.398;2023-04-12T08:56:37;99172.25;;;24.19;35.87
72294;BME280;60632;49.236;8.398;2023-04-12T08:59:41;99171.44;;;24.19;35.85
72294;BME280;60632;49.236;8.398;2023-04-12T09:02:41;99166.72;;;24.19;35.98
72294;BME280;60632;49.236;8.398;2023-04-12T09:05:47;99163.97;;;24.19;35.88
72294;BME280;60632;49.236;8.398;2023-04-12T09:08:54;99161.19;;;24.19;35.92
72294;BME280;60632;49.236;8.398;2023-04-12T09:12:05;99154.50;;;24.20;35.91
72294;BME280;60632;49.236;8.398;2023-04-12T09:15:06;99149.28;;;24.19;35.75
72294;BME280;60632;49.236;8.398;2023-04-12T09:18:09;99145.72;;;24.18;35.90
72294;BME280;60632;49.236;8.398;2023-04-12T09:21:10;99147.69;;;24.18;35.80
72294;BME280;60632;49.236;8.398;2023-04-12T09:24:11;99139.38;;;24.18;36.06
72294;BME280;60632;49.236;8.398;2023-04-12T09:27:12;99129.91;;;24.19;35.90
72294;BME280;60632;49.236;8.398;2023-04-12T09:30:12;99124.38;;;24.19;36.04
72294;BME280;60632;49.236;8.398;2023-04-12T09:33:13;99110.53;;;24.19;35.76
72294;BME280;60632;49.236;8.398;2023-04-12T09:36:14;99118.84;;;24.19;36.06
72294;BME280;60632;49.236;8.398;2023-04-12T09:39:16;99121.59;;;24.19;35.91
72294;BME280;60632;49.236;8.398;2023-04-12T09:42:16;99114.13;;;24.19;35.98
72294;BME280;60632;49.236;8.398;2023-04-12T09:45:17;99117.69;;;24.20;35.99
72294;BME280;60632;49.236;8.398;2023-04-12T09:48:18;99102.22;;;24.19;35.92
72294;BME280;60632;49.236;8.398;2023-04-12T09:51:29;99097.53;;;24.19;35.94
72294;BME280;60632;49.236;8.398;2023-04-12T09:54:32;99099.47;;;24.19;35.88
72294;BME280;60632;49.236;8.398;2023-04-12T09:57:37;99097.53;;;24.19;36.05
72294;BME280;60632;49.236;8.398;2023-04-12T10:00:37;99103.84;;;24.20;36.04
72294;BME280;60632;49.236;8.398;2023-04-12T10:03:38;99093.59;;;24.20;35.92
72294;BME280;60632;49.236;8.398;2023-04-12T10:06:39;99083.69;;;24.19;35.92
72294;BME280;60632;49.236;8.398;2023-04-12T10:09:40;99084.47;;;24.20;35.91
72294;BME280;60632;49.236;8.398;2023-04-12T10:12:41;99076.19;;;24.20;36.03
72294;BME280;60632;49.236;8.398;2023-04-12T10:15:44;99078.94;;;24.20;35.89
72294;BME280;60632;49.236;8.398;2023-04-12T10:18:44;99074.22;;;24.20;36.02
72294;BME280;60632;49.236;8.398;2023-04-12T10:21:46;99075.00;;;24.21;35.96
72294;BME280;60632;49.236;8.398;2023-04-12T10:24:46;99060.69;;;24.19;35.87
72294;BME280;60632;49.236;8.398;2023-04-12T10:27:48;99081.72;;;24.20;36.11
72294;BME280;60632;49.236;8.398;2023-04-12T10:30:48;99061.97;;;24.21;36.00
72294;BME280;60632;49.236;8.398;2023-04-12T10:33:51;99054.84;;;24.20;35.96
72294;BME280;60632;49.236;8.398;2023-04-12T10:36:54;99053.66;;;24.21;36.01
72294;BME280;60632;49.236;8.398;2023-04-12T10:40:04;99044.56;;;24.21;36.03
72294;BME280;60632;49.236;8.398;2023-04-12T10:43:24;99039.03;;;24.21;36.10
72294;BME280;60632;49.236;8.398;2023-04-12T10:49:38;99031.88;;;24.20;36.02
72294;BME280;60632;49.236;8.398;2023-04-12T10:52:39;99043.75;;;24.20;36.03
72294;BME280;60632;49.236;8.398;2023-04-12T10:55:41;99039.03;;;24.21;36.01
72294;BME280;60632;49.236;8.398;2023-04-12T11:02:29;99033.47;;;24.21;35.98
72294;BME280;60632;49.236;8.398;2023-04-12T11:05:10;99027.16;;;24.20;36.03
72294;BME280;60632;49.236;8.398;2023-04-12T11:08:13;99017.66;;;24.21;36.05
72294;BME280;60632;49.236;8.398;2023-04-12T11:11:17;99022.41;;;24.21;35.97
72294;BME280;60632;49.236;8.398;2023-04-12T11:14:20;99010.53;;;24.20;36.14
72294;BME280;60632;49.236;8.398;2023-04-12T11:17:23;99013.66;;;24.19;36.06
72294;BME280;60632;49.236;8.398;2023-04-12T11:20:25;99010.88;;;24.19;36.06
72294;BME280;60632;49.236;8.398;2023-04-12T11:23:26;99017.59;;;24.18;36.13
72294;BME280;60632;49.236;8.398;2023-04-12T11:26:28;99002.56;;;24.19;36.04
72294;BME280;60632;49.236;8.398;2023-04-12T11:29:29;98997.03;;;24.19;36.27
72294;BME280;60632;49.236;8.398;2023-04-12T11:32:31;98998.66;;;24.20;36.04
72294;BME280;60632;49.236;8.398;2023-04-12T11:35:33;99006.16;;;24.19;36.13
72294;BME280;60632;49.236;8.398;2023-04-12T11:38:34;98987.59;;;24.20;36.24
72294;BME280;60632;49.236;8.398;2023-04-12T11:41:35;98988.38;;;24.20;36.25
72294;BME280;60632;49.236;8.398;2023-04-12T11:44:38;98982.47;;;24.22;36.21
72294;BME280;60632;49.236;8.398;2023-04-12T11:47:42;98989.19;;;24.21;36.25
72294;BME280;60632;49.236;8.398;2023-04-12T11:50:43;98989.19;;;24.21;36.12
72294;BME280;60632;49.236;8.398;2023-04-12T11:53:44;98979.72;;;24.22;36.17
72294;BME280;60632;49.236;8.398;2023-04-12T11:56:44;98977.41;;;24.24;36.31
72294;BME280;60632;49.236;8.398;2023-04-12T11:59:45;98976.59;;;24.24;36.23
72294;BME280;60632;49.236;8.398;2023-04-12T12:02:46;98967.50;;;24.23;36.28
72294;BME280;60632;49.236;8.398;2023-04-12T12:05:46;98958.03;;;24.24;35.96
72294;BME280;60632;49.236;8.398;2023-04-12T12:08:50;98960.78;;;24.24;36.23
72294;BME280;60632;49.236;8.398;2023-04-12T12:11:51;98959.63;;;24.25;36.34
72294;BME280;60632;49.236;8.398;2023-04-12T12:14:51;98970.34;;;24.27;36.26
72294;BME280;60632;49.236;8.398;2023-04-12T12:17:51;98955.34;;;24.28;36.41
72294;BME280;60632;49.236;8.398;2023-04-12T12:20:52;98956.13;;;24.28;36.30
72294;BME280;60632;49.236;8.398;2023-04-12T12:23:54;98952.22;;;24.29;36.46
72294;BME280;60632;49.236;8.398;2023-04-12T12:26:55;98953.81;;;24.30;36.31
72294;BME280;60632;49.236;8.398;2023-04-12T12:30:00;98950.69;;;24.32;36.30
72294;BME280;60632;49.236;8.398;2023-04-12T12:33:01;98950.34;;;24.33;36.33
72294;BME280;60632;49.236;8.398;2023-04-12T12:36:01;98953.91;;;24.34;36.14
72294;BME280;60632;49.236;8.398;2023-04-12T12:39:09;98951.94;;;24.34;36.32
72294;BME280;60632;49.236;8.398;2023-04-12T12:42:10;98941.31;;;24.36;36.39
72294;BME280;60632;49.236;8.398;2023-04-12T12:45:11;98947.28;;;24.38;36.34
72294;BME280;60632;49.236;8.398;2023-04-12T12:48:12;98937.03;;;24.39;36.30
72294;BME280;60632;49.236;8.398;2023-04-12T12:51:13;98929.50;;;24.39;36.29
72294;BME280;60632;49.236;8.398;2023-04-12T12:54:16;98927.19;;;24.41;36.39
72294;BME280;60632;49.236;8.398;2023-04-12T12:57:17;98913.00;;;24.43;36.37
72294;BME280;60632;49.236;8.398;2023-04-12T13:00:17;98913.81;;;24.43;36.16
72294;BME280;60632;49.236;8.398;2023-04-12T13:03:18;98911.47;;;24.46;36.35
72294;BME280;60632;49.236;8.398;2023-04-12T13:06:18;98902.00;;;24.47;36.37
72294;BME280;60632;49.236;8.398;2023-04-12T13:09:19;98914.69;;;24.48;36.38
72294;BME280;60632;49.236;8.398;2023-04-12T13:12:19;98922.63;;;24.49;36.36
72294;BME280;60632;49.236;8.398;2023-04-12T13:15:21;98927.38;;;24.49;36.48
72294;BME280;60632;49.236;8.398;2023-04-12T13:18:21;98928.97;;;24.50;36.14
72294;BME280;60632;49.236;8.398;2023-04-12T13:21:22;98933.34;;;24.51;36.17
72294;BME280;60632;49.236;8.398;2023-04-12T13:24:22;98936.09;;;24.51;36.26
72294;BME280;60632;49.236;8.398;2023-04-12T13:27:23;98945.59;;;24.50;36.40
72294;BME280;60632;49.236;8.398;2023-04-12T13:30:23;98942.38;;;24.48;36.22
72294;BME280;60632;49.236;8.398;2023-04-12T13:33:24;98936.84;;;24.48;36.44
72294;BME280;60632;49.236;8.398;2023-04-12T13:36:24;98929.69;;;24.47;36.34
72294;BME280;60632;49.236;8.398;2023-04-12T13:39:26;98926.94;;;24.47;36.51
72294;BME280;60632;49.236;8.398;2023-04-12T13:42:26;98946.31;;;24.47;36.48
72294;BME280;60632;49.236;8.398;2023-04-12T13:45:27;98912.63;;;24.44;36.36
72294;BME280;60632;49.236;8.398;2023-04-12T13:48:27;98905.94;;;24.46;36.50
72294;BME280;60632;49.236;8.398;2023-04-12T13:51:28;98917.03;;;24.46;36.44
72294;BME280;60632;49.236;8.398;2023-04-12T13:54:28;98932.84;;;24.45;36.55
72294;BME280;60632;49.236;8.398;2023-04-12T13:57:29;98950.25;;;24.46;36.46
72294;BME280;60632;49.236;8.398;2023-04-12T14:00:30;98938.00;;;24.47;36.38
72294;BME280;60632;49.236;8.398;2023-04-12T14:03:30;98946.31;;;24.47;36.45
72294;BME280;60632;49.236;8.398;2023-04-12T14:06:30;98960.97;;;24.47;36.45
72294;BME280;60632;49.236;8.398;2023-04-12T14:09:31;98967.28;;;24.48;36.48
72294;BME280;60632;49.236;8.398;2023-04-12T14:12:32;98982.75;;;24.49;36.32
72294;BME280;60632;49.236;8.398;2023-04-12T14:15:32;98989.91;;;24.50;36.48
72294;BME280;60632;49.236;8.398;2023-04-12T14:18:33;98995.06;;;24.51;36.43
72294;BME280;60632;49.236;8.398;2023-04-12T14:21:33;98984.81;;;24.52;36.42
72294;BME280;60632;49.236;8.398;2023-04-12T14:24:33;98971.78;;;24.52;36.65
72294;BME280;60632;49.236;8.398;2023-04-12T14:27:34;98968.63;;;24.54;36.42
72294;BME280;60632;49.236;8.398;2023-04-12T14:30:34;98959.16;;;24.55;36.48
72294;BME280;60632;49.236;8.398;2023-04-12T14:33:35;98955.22;;;24.56;36.38
72294;BME280;60632;49.236;8.398;2023-04-12T14:36:35;98966.72;;;24.58;36.51
72294;BME280;60632;49.236;8.398;2023-04-12T14:39:36;98947.34;;;24.58;36.40
72294;BME280;60632;49.236;8.398;2023-04-12T14:42:36;98967.19;;;24.60;36.32
72294;BME280;60632;49.236;8.398;2023-04-12T14:45:37;98977.47;;;24.59;36.32
72294;BME280;60632;49.236;8.398;2023-04-12T14:48:38;98985.41;;;24.61;36.35
72294;BME280;60632;49.236;8.398;2023-04-12T14:51:38;98998.09;;;24.62;36.43
72294;BME280;60632;49.236;8.398;2023-04-12T14:54:38;98996.13;;;24.62;36.48
72294;BME280;60632;49.236;8.398;2023-04-12T14:57:39;98984.25;;;24.62;36.51
72294;BME280;60632;49.236;8.398;2023-04-12T15:00:40;98999.69;;;24.63;36.30
72294;BME280;60632;49.236;8.398;2023-04-12T15:03:40;98988.63;;;24.63;36.48
72294;BME280;60632;49.236;8.398;2023-04-12T15:06:41;98983.88;;;24.63;36.48
72294;BME280;60632;49.236;8.398;2023-04-12T15:09:41;99008.47;;;24.65;36.47
72294;BME280;60632;49.236;8.398;2023-04-12T15:12:43;98990.22;;;24.64;36.29
72294;BME280;60632;49.236;8.398;2023-04-12T15:15:43;99010.06;;;24.66;36.24
72294;BME280;60632;49.236;8.398;2023-04-12T15:18:46;99014.81;;;24.65;36.47
72294;BME280;60632;49.236;8.398;2023-04-12T15:21:47;99024.72;;;24.66;36.35
72294;BME280;60632;49.236;8.398;2023-04-12T15:24:50;99032.22;;;24.66;36.16
72294;BME280;60632;49.236;8.398;2023-04-12T15:27:50;99037.75;;;24.66;36.41
72294;BME280;60632;49.236;8.398;2023-04-12T15:30:51;99026.69;;;24.66;36.43
72294;BME280;60632;49.236;8.398;2023-04-12T15:33:52;99017.56;;;24.65;36.40
72294;BME280;60632;49.236;8.398;2023-04-12T15:36:52;99010.06;;;24.66;36.38
72294;BME280;60632;49.236;8.398;2023-04-12T15:39:53;99016.41;;;24.66;36.49
72294;BME280;60632;49.236;8.398;2023-04-12T15:42:54;99010.06;;;24.66;36.34
72294;BME280;60632;49.236;8.398;2023-04-12T15:45:54;99017.19;;;24.67;36.31
72294;BME280;60632;49.236;8.398;2023-04-12T15:48:55;99006.13;;;24.67;36.31
72294;BME280;60632;49.236;8.398;2023-04-12T15:51:59;99009.25;;;24.65;36.36
72294;BME280;60632;49.236;8.398;2023-04-12T15:54:59;99006.13;;;24.67;36.40
72294;BME280;60632;49.236;8.398;2023-04-12T15:58:00;99010.84;;;24.66;36.37
72294;BME280;60632;49.236;8.398;2023-04-12T16:01:00;99018.81;;;24.68;36.46
72294;BME280;60632;49.236;8.398;2023-04-12T16:04:01;99008.53;;;24.68;36.44
72294;BME280;60632;49.236;8.398;2023-04-12T16:07:01;99014.44;;;24.67;36.68
72294;BME280;60632;49.236;8.398;2023-04-12T16:10:03;99014.88;;;24.69;36.44
72294;BME280;60632;49.236;8.398;2023-04-12T16:13:05;99013.28;;;24.68;36.58